NCAR-RAP Real-Time Weather Data

Output produced by METARs form (17 December 2018  14:13 UTC)
found at http://weather.rap.ucar.edu/surface/
 
ROIG 171100Z 01012KT 9999 FEW034 SCT040 17/10 Q1022
ROIG 171000Z 02013KT 9999 FEW034 17/11 Q1021
ROIG 170900Z 02012KT 9999 FEW035 17/11 Q1021
ROIG 170800Z 02013KT 9999 FEW034 18/11 Q1020
ROIG 170700Z 02013KT 9999 FEW035 19/10 Q1020
ROIG 170600Z 01015KT 330V040 9999 FEW035 SCT040 19/11 Q1020
ROIG 170500Z 01015KT 9999 FEW030 SCT040 BKN080 19/11 Q1020
ROIG 170400Z 01013KT 9999 FEW030 SCT039 BKN080 18/11 Q1021
ROIG 170300Z 01017KT 9999 FEW030 SCT050 BKN070 18/11 Q1021
ROIG 170200Z 01015KT 9999 FEW030 BKN060 19/11 Q1022
ROIG 170100Z 01014KT 9999 -RA FEW030 SCT043 BKN060 18/12 Q1022
ROIG 170000Z 01012KT 9999 VCSH SCT024 SCT040 BKN060 17/13 Q1021
ROIG 162300Z 01013KT 9999 -SHRA FEW015 BKN021 BKN050 17/15 Q1020
ROIG 162200Z 01010KT 330V040 9999 VCSH SCT015 BKN023 BKN050 17/14 Q1020
ROIG 162100Z 36013KT 9999 FEW025 BKN045 18/13 Q1018
ROIG 161140Z 34004KT 300V020 9999 -SHRA FEW008 SCT012 BKN025 20/20 Q1018 RMK 1ST008 3CU012 6CU025 A3008
ROIG 161132Z 01007KT 7000 SHRA FEW006 SCT011 BKN025 20/20 Q1018 RMK 1ST006 4CU011 6CU025 A3008
ROIG 161100Z 31005KT 260V340 9999 -SHRA FEW009 SCT021 BKN040 20/20 Q1018
ROIG 161049Z 29007KT 9999 -SHRA FEW008 SCT013 BKN030 20/19 Q1018 RMK 1ST008 3CU013 6CU030 A3007
ROIG 161037Z 30006KT 270V330 7000 SHRA SCT015 BKN025 21/20 Q1018 RMK 3CU015 6CU025 A3007
ROIG 161000Z 28003KT 9999 FEW016 SCT035 BKN080 21/20 Q1017
ROIG 160900Z 24004KT 9999 FEW018 BKN046 BKN080 22/20 Q1018
ROIG 160800Z 20006KT 160V230 9999 FEW019 BKN070 23/20 Q1017
ROIG 160700Z 19008KT 9999 FEW017 SCT024 BKN070 23/20 Q1017
ROIG 160600Z 18008KT 9999 FEW020 BKN080 23/19 Q1017
ROIG 160500Z 16008KT 9999 FEW020 BKN080 23/19 Q1018
ROIG 160400Z 16006KT 120V210 9999 FEW013 SCT025 BKN060 22/20 Q1019
ROIG 160300Z 14005KT 110V180 9999 -SHRA FEW012 SCT028 BKN045 21/20 Q1021
ROIG 160200Z 14006KT 9999 -SHRA FEW012 SCT029 BKN050 20/20 Q1021
ROIG 160144Z 13005KT 100V160 9999 -SHRA FEW013 BKN032 BKN050 20/20 Q1022 RMK 1CU013 6CU032 7SC050 A3018
ROIG 160133Z 11006KT 9999 R04/1200VP1800D SHRA SCT015 BKN030 BKN050 20/20 Q1022 RMK 3CU015 6CU030 7SC050 A3018
ROIG 160100Z 10008KT 9999 -SHRA SCT024 BKN030 BKN050 21/20 Q1022
ROIG 160000Z 13005KT 090V160 9999 VCSH BKN027 BKN060 23/18 Q1021
ROIG 151100Z 06015KT 9999 FEW030 BKN040 22/16 Q1022
ROIG 151000Z 06013KT 9999 -SHRA FEW025 BKN030 22/16 Q1022
ROIG 150900Z 07012KT 9999 FEW030 BKN045 22/16 Q1021
ROIG 150800Z 07013KT 9999 SCT032 22/16 Q1021
ROIG 150700Z 07012KT 9999 SCT032 SCT045 23/15 Q1021
ROIG 150600Z 07015KT 9999 SCT032 23/16 Q1021
ROIG 150500Z 06015KT 9999 SCT030 SCT080 24/16 Q1022
ROIG 150400Z 06016KT 9999 SCT030 BKN080 23/16 Q1023
ROIG 150300Z 06018KT 9999 BKN030 BKN070 23/16 Q1024